createdAt,value
2022-12-31T00:02:18.352Z,1016.85
2022-12-31T00:31:11.230Z,1017.27
2022-12-31T01:00:07.303Z,1017.23
2022-12-31T01:29:01.946Z,1017.45
2022-12-31T01:57:53.867Z,1017.78
2022-12-31T02:26:42.571Z,1017.76
2022-12-31T02:55:42.623Z,1017.81
2022-12-31T03:24:28.235Z,1017.88
2022-12-31T03:52:49.843Z,1017.76
2022-12-31T04:21:10.429Z,1018.11
2022-12-31T04:49:29.636Z,1018.1
2022-12-31T05:17:51.028Z,1018.03
2022-12-31T05:46:11.619Z,1018.53
2022-12-31T06:14:29.540Z,1018.22
2022-12-31T06:42:48.816Z,1018.63
2022-12-31T07:11:10.400Z,1018.97
2022-12-31T07:39:31.484Z,1019.18
2022-12-31T08:07:58.576Z,1019.31
2022-12-31T08:36:21.444Z,1019.58
2022-12-31T09:04:47.197Z,1019.54
2022-12-31T09:33:21.604Z,1019.68
2022-12-31T10:01:38.958Z,1019.55
2022-12-31T10:29:51.033Z,1019.36
2022-12-31T10:58:43.070Z,1018.91
2022-12-31T11:27:34.232Z,1018.63
2022-12-31T11:56:30.387Z,1018.59
2022-12-31T12:25:08.164Z,1018.2
2022-12-31T12:54:02.247Z,1017.9
2022-12-31T13:22:55.145Z,1017.94
2022-12-31T13:51:46.408Z,1018.01
2022-12-31T14:20:39.288Z,1017.97
2022-12-31T14:49:32.824Z,1018.04
2022-12-31T15:18:12.289Z,1017.99
2022-12-31T15:47:11.210Z,1018
2022-12-31T16:16:07.911Z,1018.27
2022-12-31T16:45:00.436Z,1018.59
2022-12-31T17:13:51.505Z,1018.66
2022-12-31T17:42:43.743Z,1018.72
2022-12-31T18:11:30.710Z,1018.97
2022-12-31T18:40:20.198Z,1019.18
2022-12-31T19:09:44.966Z,1019.43
2022-12-31T19:37:31.947Z,1019.34
2022-12-31T20:05:53.752Z,1019.22
2022-12-31T20:34:10.477Z,1019.56
2022-12-31T21:04:02.735Z,1019.67
2022-12-31T21:31:22.776Z,1019.85
2022-12-31T22:00:42.162Z,1020.03
2022-12-31T22:28:46.846Z,1020.31
2022-12-31T22:57:26.608Z,1020.54
2022-12-31T23:26:14.884Z,1020.76
2022-12-31T23:55:01.206Z,1020.55
